| time (UTC) | temp F | wind direction | speed MPH | gust MPH | rain 1hr in | rain 24hr in | rain mn in | humidity % | barometer mb |
| 20260906031606 | 79 | 77 | 7.0 | 17.0 | 0.00 | 0.00 | 0.00 | 51 | 1018.4 |
| 20260906031105 | 79 | 66 | 7.0 | 17.0 | 0.00 | 0.00 | 0.00 | 51 | 1018.3 |
| 20260906030605 | 79 | 24 | 12.0 | 20.0 | 0.00 | 0.00 | 0.00 | 51 | 1018.3 |
| 20260906025605 | 79 | 37 | 9.0 | 17.0 | 0.00 | 0.00 | 0.00 | 52 | 1018.3 |
| 20260906025105 | 79 | 26 | 7.0 | 14.0 | 0.00 | 0.00 | 0.00 | 51 | 1018.3 |
| 20260906024605 | 79 | 124 | 7.0 | 15.0 | 0.00 | 0.00 | 0.00 | 51 | 1018.3 |
| 20260906024105 | 79 | 49 | 8.0 | 13.0 | 0.00 | 0.00 | 0.00 | 51 | 1018.3 |
| 20260906023605 | 80 | 99 | 6.0 | 13.0 | 0.00 | 0.00 | 0.00 | 50 | 1018.3 |
| 20260906023105 | 79 | 64 | 6.0 | 15.0 | 0.00 | 0.00 | 0.00 | 51 | 1018.1 |
| 20260906022605 | 79 | 21 | 7.0 | 16.0 | 0.00 | 0.00 | 0.00 | 52 | 1018.1 |
| 20260906022105 | 79 | 34 | 8.0 | 15.0 | 0.00 | 0.00 | 0.00 | 51 | 1018.2 |
| 20260906021605 | 79 | 40 | 9.0 | 18.0 | 0.00 | 0.00 | 0.00 | 51 | 1018.2 |
| 20260906021105 | 79 | 49 | 8.0 | 13.0 | 0.00 | 0.00 | 0.00 | 52 | 1018.2 |
| 20260906020606 | 80 | 87 | 8.0 | 13.0 | 0.00 | 0.00 | 0.00 | 51 | 1018.2 |
| 20260906020118 | 80 | 76 | 6.0 | 12.0 | 0.00 | 0.00 | 0.00 | 51 | 1017.9 |
| 20260906015606 | 80 | 212 | 7.0 | 13.0 | 0.00 | 0.00 | 0.00 | 51 | 1018.5 |
| 20260906014605 | 80 | 64 | 5.0 | 10.0 | 0.00 | 0.00 | 0.00 | 51 | 1018.3 |
| 20260906014106 | 80 | 79 | 6.0 | 9.0 | 0.00 | 0.00 | 0.00 | 52 | 1018.3 |
| 20260906013606 | 80 | 46 | 5.0 | 13.0 | 0.00 | 0.00 | 0.00 | 51 | 1018.3 |
| 20260906013105 | 80 | 30 | 5.0 | 10.0 | 0.00 | 0.00 | 0.00 | 51 | 1018.3 |
| 20260906012605 | 80 | 341 | 3.0 | 10.0 | 0.00 | 0.00 | 0.00 | 52 | 1018.4 |
| 20260906011605 | 79 | 39 | 4.0 | 9.0 | 0.00 | 0.00 | 0.00 | 53 | 1018.6 |
| 20260906010605 | 78 | 195 | 2.0 | 5.0 | 0.00 | 0.00 | 0.00 | 54 | 1018.5 |
| 20260906010120 | 79 | 254 | 2.0 | 5.0 | 0.00 | 0.00 | 0.00 | 54 | 1018.3 |
| 20260906004605 | 80 | 79 | 7.0 | 12.0 | 0.00 | 0.00 | 0.00 | 51 | 1018.3 |
| 20260906004105 | 80 | 55 | 6.0 | 12.0 | 0.00 | 0.00 | 0.00 | 52 | 1018.3 |
| 20260906003607 | 79 | 56 | 3.0 | 6.0 | 0.00 | 0.00 | 0.00 | 54 | 1018.3 |
| 20260906002605 | 79 | 53 | 2.0 | 3.0 | 0.00 | 0.00 | 0.00 | 55 | 1018.2 |
| 20260906001105 | 79 | 332 | 2.0 | 5.0 | 0.00 | 0.00 | 0.00 | 55 | 1018.3 |
| 20260906000605 | 79 | 10 | 3.0 | 7.0 | 0.00 | 0.00 | 0.00 | 56 | 1018.3 |
| 20260906000118 | 77 | 233 | 1.0 | 2.0 | 0.00 | 0.00 | 0.00 | 58 | 1018.3 |
| 20260905235606 | 77 | 61 | 1.0 | 3.0 | 0.00 | 0.00 | 0.00 | 59 | 1018.3 |
| 20260905235105 | 75 | 213 | 1.0 | 3.0 | 0.00 | 0.00 | 0.00 | 61 | 1018.4 |
| 20260905234605 | 75 | 222 | 0.0 | 1.0 | 0.00 | 0.00 | 0.00 | 62 | 1018.6 |
| 20260905234105 | 75 | 229 | 1.0 | 1.0 | 0.00 | 0.00 | 0.00 | 62 | 1018.6 |
| 20260905233605 | 75 | 234 | 0.0 | 1.0 | 0.00 | 0.00 | 0.00 | 62 | 1018.6 |
| 20260905233105 | 75 | 236 | 0.0 | 0.0 | 0.00 | 0.00 | 0.00 | 63 | 1018.8 |
| 20260905232605 | 75 | 230 | 0.0 | 1.0 | 0.00 | 0.00 | 0.00 | 61 | 1018.6 |
| 20260905232105 | 75 | 234 | 0.0 | 1.0 | 0.00 | 0.00 | 0.00 | 61 | 1018.6 |
| 20260905231605 | 75 | 228 | 1.0 | 1.0 | 0.00 | 0.00 | 0.00 | 61 | 1018.6 |
| 20260905230605 | 75 | 237 | 0.0 | 1.0 | 0.00 | 0.00 | 0.00 | 62 | 1018.6 |
| 20260905230118 | 75 | 234 | 0.0 | 1.0 | 0.00 | 0.00 | 0.00 | 61 | 1018.6 |
| 20260905225105 | 76 | 234 | 1.0 | 1.0 | 0.00 | 0.00 | 0.00 | 59 | 1018.4 |
| 20260905224606 | 77 | 255 | 1.0 | 2.0 | 0.00 | 0.00 | 0.00 | 58 | 1018.6 |
| 20260905224106 | 76 | 246 | 1.0 | 1.0 | 0.00 | 0.00 | 0.00 | 59 | 1018.8 |
| 20260905223605 | 76 | 242 | 1.0 | 2.0 | 0.00 | 0.00 | 0.00 | 58 | 1018.5 |
| 20260905223105 | 76 | 248 | 1.0 | 2.0 | 0.00 | 0.00 | 0.00 | 58 | 1018.6 |
| 20260905222605 | 76 | 237 | 1.0 | 1.0 | 0.00 | 0.00 | 0.00 | 58 | 1018.6 |
| 20260905222111 | 76 | 227 | 0.0 | 1.0 | 0.00 | 0.00 | 0.00 | 58 | 1018.6 |
| 20260905221605 | 76 | 230 | 0.0 | 1.0 | 0.00 | 0.00 | 0.00 | 58 | 1018.6 |
| 20260905213614 | 78 | 227 | 0.0 | 0.0 | 0.00 | 0.00 | 0.00 | 58 | 1018.5 |
| 20260905213105 | 78 | 227 | 0.0 | 1.0 | 0.00 | 0.00 | 0.00 | 57 | 1018.6 |
| 20260905212605 | 78 | 207 | 1.0 | 2.0 | 0.00 | 0.00 | 0.00 | 56 | 1018.6 |
| 20260905211605 | 78 | 227 | 1.0 | 1.0 | 0.00 | 0.00 | 0.00 | 58 | 1018.3 |
| 20260905210605 | 78 | 221 | 0.0 | 2.0 | 0.00 | 0.00 | 0.00 | 62 | 1018.4 |
| 20260905210121 | 78 | 231 | 0.0 | 1.0 | 0.00 | 0.00 | 0.00 | 62 | 1018.3 |
| 20260905204605 | 78 | 237 | 0.0 | 1.0 | 0.00 | 0.00 | 0.00 | 63 | 1018.0 |
| 20260905204105 | 78 | 235 | 0.0 | 1.0 | 0.00 | 0.00 | 0.00 | 63 | 1018.3 |
| 20260905203107 | 78 | 233 | 0.0 | 1.0 | 0.00 | 0.00 | 0.00 | 64 | 1018.3 |
| 20260905202106 | 80 | 275 | 1.0 | 2.0 | 0.00 | 0.00 | 0.00 | 64 | 1018.3 |
| 20260905193607 | 81 | 250 | 1.0 | 2.0 | 0.00 | 0.00 | 0.00 | 48 | 1017.9 |
| 20260905191104 | 80 | 232 | 0.0 | 0.0 | 0.00 | 0.00 | 0.00 | 49 | 1017.6 |
| 20260905190124 | 81 | 237 | 0.0 | 1.0 | 0.00 | 0.00 | 0.00 | 49 | 1017.6 |
| 20260905175605 | 83 | 196 | 1.0 | 2.0 | 0.00 | 0.00 | 0.00 | 52 | 1016.9 |
| 20260905174606 | 84 | 218 | 1.0 | 2.0 | 0.00 | 0.00 | 0.00 | 53 | 1016.9 |
| 20260905171605 | 85 | 217 | 2.0 | 3.0 | 0.00 | 0.00 | 0.00 | 51 | 1016.7 |
| 20260905170118 | 87 | 227 | 1.0 | 2.0 | 0.00 | 0.00 | 0.00 | 49 | 1016.7 |
| 20260905165605 | 88 | 228 | 1.0 | 1.0 | 0.00 | 0.00 | 0.00 | 49 | 1016.8 |
| 20260905165109 | 88 | 220 | 1.0 | 3.0 | 0.00 | 0.00 | 0.00 | 49 | 1016.7 |
| 20260905164115 | 88 | 220 | 1.0 | 3.0 | 0.00 | 0.00 | 0.00 | 48 | 1016.7 |
| 20260905163605 | 89 | 229 | 1.0 | 2.0 | 0.00 | 0.00 | 0.00 | 46 | 1016.7 |
| 20260905162605 | 89 | 234 | 1.0 | 2.0 | 0.00 | 0.00 | 0.00 | 42 | 1016.7 |
| 20260905162105 | 89 | 227 | 1.0 | 3.0 | 0.00 | 0.00 | 0.00 | 41 | 1016.7 |
| 20260905154605 | 92 | 228 | 1.0 | 2.0 | 0.00 | 0.00 | 0.00 | 42 | 1016.9 |
| 20260905154105 | 91 | 223 | 2.0 | 3.0 | 0.00 | 0.00 | 0.00 | 43 | 1017.1 |
| 20260905153105 | 92 | 223 | 1.0 | 5.0 | 0.00 | 0.00 | 0.00 | 44 | 1017.2 |
| 20260905150124 | 90 | 246 | 2.0 | 7.0 | 0.00 | 0.00 | 0.00 | 42 | 1017.2 |
| 20260905145616 | 91 | 238 | 3.0 | 7.0 | 0.00 | 0.00 | 0.00 | 42 | 1017.2 |
| 20260905144614 | 93 | 233 | 1.0 | 2.0 | 0.00 | 0.00 | 0.00 | 41 | 1017.3 |
| 20260905144105 | 92 | 229 | 1.0 | 7.0 | 0.00 | 0.00 | 0.00 | 41 | 1016.9 |
| 20260905141109 | 94 | 209 | 2.0 | 6.0 | 0.00 | 0.00 | 0.00 | 38 | 1017.3 |
| 20260905135606 | 92 | 145 | 2.0 | 8.0 | 0.00 | 0.00 | 0.00 | 38 | 1017.3 |
| 20260905134105 | 92 | 225 | 3.0 | 8.0 | 0.00 | 0.00 | 0.00 | 33 | 1017.3 |
| 20260905133606 | 92 | 196 | 2.0 | 8.0 | 0.00 | 0.00 | 0.00 | 33 | 1017.3 |
| 20260905132105 | 91 | 222 | 3.0 | 7.0 | 0.00 | 0.00 | 0.00 | 32 | 1017.3 |
| 20260905125607 | 92 | 189 | 4.0 | 8.0 | 0.00 | 0.00 | 0.00 | 33 | 1017.5 |
| 20260905124607 | 91 | 212 | 3.0 | 9.0 | 0.00 | 0.00 | 0.00 | 31 | 1017.6 |
| 20260905124115 | 91 | 256 | 5.0 | 8.0 | 0.00 | 0.00 | 0.00 | 33 | 1017.8 |
| 20260905122605 | 91 | 193 | 4.0 | 13.0 | 0.00 | 0.00 | 0.00 | 34 | 1017.8 |
| 20260905122106 | 91 | 203 | 4.0 | 13.0 | 0.00 | 0.00 | 0.00 | 35 | 1017.8 |
| 20260905121613 | 91 | 14 | 4.0 | 6.0 | 0.00 | 0.00 | 0.00 | 35 | 1017.9 |
| 20260905121115 | 90 | 240 | 5.0 | 8.0 | 0.00 | 0.00 | 0.00 | 35 | 1017.9 |
| 20260905120606 | 91 | 132 | 5.0 | 8.0 | 0.00 | 0.00 | 0.00 | 35 | 1017.9 |
| 20260905120124 | 90 | 196 | 4.0 | 8.0 | 0.00 | 0.00 | 0.00 | 35 | 1017.9 |
| 20260905113606 | 90 | 222 | 6.0 | 12.0 | 0.00 | 0.00 | 0.00 | 34 | 1018.0 |
| 20260905111605 | 92 | 207 | 3.0 | 7.0 | 0.00 | 0.00 | 0.00 | 33 | 1018.0 |
| 20260905111105 | 91 | 167 | 3.0 | 13.0 | 0.00 | 0.00 | 0.00 | 32 | 1017.9 |
| 20260905110606 | 92 | 228 | 3.0 | 9.0 | 0.00 | 0.00 | 0.00 | 32 | 1018.1 |
| 20260905105605 | 91 | 305 | 2.0 | 9.0 | 0.00 | 0.00 | 0.00 | 34 | 1018.2 |
| 20260905105105 | 91 | 206 | 5.0 | 13.0 | 0.00 | 0.00 | 0.00 | 32 | 1018.0 |
| 20260905104605 | 91 | 225 | 4.0 | 12.0 | 0.00 | 0.00 | 0.00 | 31 | 1017.9 |
| 20260905104105 | 90 | 185 | 8.0 | 14.0 | 0.00 | 0.00 | 0.00 | 33 | 1017.9 |
| 20260905103606 | 91 | 200 | 7.0 | 13.0 | 0.00 | 0.00 | 0.00 | 31 | 1017.9 |
| 20260905103105 | 91 | 225 | 4.0 | 10.0 | 0.00 | 0.00 | 0.00 | 32 | 1018.2 |
| 20260905102605 | 91 | 167 | 3.0 | 10.0 | 0.00 | 0.00 | 0.00 | 34 | 1017.9 |
| 20260905102105 | 91 | 204 | 5.0 | 10.0 | 0.00 | 0.00 | 0.00 | 35 | 1017.9 |
| 20260905101605 | 91 | 230 | 3.0 | 6.0 | 0.00 | 0.00 | 0.00 | 35 | 1017.9 |
| 20260905101105 | 91 | 61 | 3.0 | 12.0 | 0.00 | 0.00 | 0.00 | 35 | 1017.9 |
| 20260905100605 | 91 | 205 | 5.0 | 9.0 | 0.00 | 0.00 | 0.00 | 35 | 1017.9 |
| 20260905095605 | 92 | 253 | 6.0 | 12.0 | 0.00 | 0.00 | 0.00 | 32 | 1017.9 |
| 20260905095105 | 91 | 217 | 5.0 | 8.0 | 0.00 | 0.00 | 0.00 | 33 | 1017.9 |
| 20260905094605 | 91 | 187 | 3.0 | 8.0 | 0.00 | 0.00 | 0.00 | 33 | 1017.9 |
| 20260905094105 | 91 | 218 | 5.0 | 7.0 | 0.00 | 0.00 | 0.00 | 33 | 1018.3 |
| 20260905093106 | 91 | 130 | 2.0 | 6.0 | 0.00 | 0.00 | 0.00 | 35 | 1017.9 |
| 20260905092605 | 91 | 211 | 3.0 | 6.0 | 0.00 | 0.00 | 0.00 | 33 | 1018.3 |
| 20260905092105 | 91 | 217 | 2.0 | 5.0 | 0.00 | 0.00 | 0.00 | 33 | 1018.1 |
| 20260905091605 | 91 | 204 | 3.0 | 8.0 | 0.00 | 0.00 | 0.00 | 34 | 1018.1 |
| 20260905091105 | 91 | 191 | 3.0 | 7.0 | 0.00 | 0.00 | 0.00 | 35 | 1018.3 |
| 20260905090605 | 90 | 219 | 2.0 | 5.0 | 0.00 | 0.00 | 0.00 | 37 | 1018.3 |
| 20260905090118 | 90 | 170 | 3.0 | 6.0 | 0.00 | 0.00 | 0.00 | 38 | 1018.3 |
| 20260905085605 | 91 | 228 | 2.0 | 5.0 | 0.00 | 0.00 | 0.00 | 36 | 1018.1 |
| 20260905085106 | 90 | 232 | 1.0 | 6.0 | 0.00 | 0.00 | 0.00 | 34 | 1018.1 |
| 20260905084605 | 90 | 164 | 3.0 | 5.0 | 0.00 | 0.00 | 0.00 | 34 | 1017.9 |
| 20260905083605 | 91 | 207 | 3.0 | 6.0 | 0.00 | 0.00 | 0.00 | 34 | 1018.3 |
| 20260905083105 | 90 | 226 | 2.0 | 7.0 | 0.00 | 0.00 | 0.00 | 34 | 1017.9 |
| 20260905082605 | 91 | 197 | 2.0 | 7.0 | 0.00 | 0.00 | 0.00 | 32 | 1017.9 |
| 20260905082105 | 90 | 214 | 1.0 | 5.0 | 0.00 | 0.00 | 0.00 | 33 | 1017.9 |
| 20260905081605 | 89 | 222 | 2.0 | 5.0 | 0.00 | 0.00 | 0.00 | 34 | 1017.9 |
| 20260905081105 | 91 | 241 | 2.0 | 3.0 | 0.00 | 0.00 | 0.00 | 33 | 1017.9 |
| 20260905080605 | 90 | 229 | 0.0 | 2.0 | 0.00 | 0.00 | 0.00 | 33 | 1017.9 |
| 20260905080119 | 88 | 227 | 0.0 | 1.0 | 0.00 | 0.00 | 0.00 | 34 | 1017.9 |
| 20260905075605 | 89 | 249 | 2.0 | 2.0 | 0.00 | 0.00 | 0.00 | 34 | 1017.9 |
| 20260905075106 | 88 | 230 | 0.0 | 0.0 | 0.00 | 0.00 | 0.00 | 41 | 1017.9 |
| 20260905074605 | 87 | 232 | 1.0 | 2.0 | 0.00 | 0.00 | 0.00 | 41 | 1017.9 |
| 20260905074105 | 86 | 229 | 0.0 | 1.0 | 0.00 | 0.00 | 0.00 | 41 | 1017.8 |
| 20260905073605 | 85 | 245 | 1.0 | 2.0 | 0.00 | 0.00 | 0.00 | 41 | 1017.8 |
| 20260905073107 | 86 | 230 | 0.0 | 1.0 | 0.00 | 0.00 | 0.00 | 41 | 1017.9 |
| 20260905072606 | 83 | 231 | 0.0 | 1.0 | 0.00 | 0.00 | 0.00 | 42 | 1017.9 |
| 20260905072105 | 80 | 236 | 1.0 | 2.0 | 0.00 | 0.00 | 0.00 | 46 | 1017.6 |
| 20260905071606 | 81 | 248 | 2.0 | 3.0 | 0.00 | 0.00 | 0.00 | 47 | 1017.6 |
| 20260905071105 | 80 | 235 | 1.0 | 3.0 | 0.00 | 0.00 | 0.00 | 48 | 1017.5 |
| 20260905070605 | 80 | 266 | 1.0 | 3.0 | 0.00 | 0.00 | 0.00 | 47 | 1017.6 |
| 20260905070119 | 79 | 243 | 2.0 | 3.0 | 0.00 | 0.00 | 0.00 | 48 | 1017.6 |
| 20260905065605 | 78 | 261 | 2.0 | 3.0 | 0.00 | 0.00 | 0.00 | 56 | 1017.6 |
| 20260905064105 | 80 | 237 | 1.0 | 1.0 | 0.00 | 0.00 | 0.00 | 58 | 1017.9 |
| 20260905063605 | 77 | 229 | 0.0 | 1.0 | 0.00 | 0.00 | 0.00 | 58 | 1017.7 |
| 20260905063105 | 76 | 230 | 0.0 | 2.0 | 0.00 | 0.00 | 0.00 | 59 | 1017.6 |
| 20260905062606 | 76 | 229 | 2.0 | 3.0 | 0.00 | 0.00 | 0.00 | 56 | 1017.6 |
| 20260905062105 | 75 | 216 | 1.0 | 2.0 | 0.00 | 0.00 | 0.00 | 58 | 1017.6 |
| 20260905061605 | 75 | 240 | 1.0 | 1.0 | 0.00 | 0.00 | 0.00 | 56 | 1017.9 |
| 20260905061105 | 74 | 231 | 1.0 | 1.0 | 0.00 | 0.00 | 0.00 | 57 | 1017.7 |
| 20260905060605 | 74 | 238 | 1.0 | 1.0 | 0.00 | 0.00 | 0.00 | 58 | 1017.9 |
| 20260905060119 | 74 | 238 | 1.0 | 1.0 | 0.00 | 0.00 | 0.00 | 57 | 1017.8 |
| 20260905055605 | 75 | 232 | 0.0 | 0.0 | 0.00 | 0.00 | 0.00 | 56 | 1017.8 |
| 20260905054606 | 72 | 233 | 0.0 | 1.0 | 0.00 | 0.00 | 0.00 | 59 | 1017.8 |
| 20260905054104 | 71 | 234 | 0.0 | 2.0 | 0.00 | 0.00 | 0.00 | 60 | 1017.5 |
| 20260905053605 | 70 | 261 | 1.0 | 2.0 | 0.00 | 0.00 | 0.00 | 61 | 1017.6 |
| 20260905053105 | 70 | 234 | 0.0 | 1.0 | 0.00 | 0.00 | 0.00 | 60 | 1017.5 |
| 20260905052606 | 70 | 227 | 0.0 | 1.0 | 0.00 | 0.00 | 0.00 | 61 | 1017.6 |
| 20260905052105 | 70 | 231 | 0.0 | 1.0 | 0.00 | 0.00 | 0.00 | 61 | 1017.5 |
| 20260905051605 | 69 | 238 | 0.0 | 1.0 | 0.00 | 0.00 | 0.00 | 60 | 1017.6 |
| 20260905051105 | 70 | 237 | 1.0 | 2.0 | 0.00 | 0.00 | 0.00 | 60 | 1017.5 |
| 20260905050119 | 70 | 255 | 1.0 | 5.0 | 0.00 | 0.00 | 0.00 | 58 | 1017.6 |
| 20260905045605 | 69 | 316 | 2.0 | 3.0 | 0.00 | 0.00 | 0.00 | 60 | 1017.3 |
| 20260905045105 | 70 | 231 | 1.0 | 1.0 | 0.00 | 0.00 | 0.00 | 58 | 1017.3 |
| 20260905044605 | 70 | 243 | 1.0 | 2.0 | 0.00 | 0.00 | 0.00 | 59 | 1017.3 |
| 20260905044105 | 69 | 228 | 0.0 | 2.0 | 0.00 | 0.00 | 0.00 | 59 | 1017.5 |
| 20260905043105 | 69 | 222 | 0.0 | 1.0 | 0.00 | 0.00 | 0.00 | 60 | 1017.3 |
| 20260905042106 | 69 | 235 | 0.0 | 1.0 | 0.00 | 0.00 | 0.00 | 61 | 1017.3 |
| 20260905040118 | 68 | 235 | 0.0 | 0.0 | 0.00 | 0.00 | 0.00 | 62 | 1017.3 |
| 20260905035605 | 68 | 232 | 0.0 | 0.0 | 0.00 | 0.00 | 0.00 | 61 | 1017.3 |
| 20260905035105 | 69 | 233 | 0.0 | 1.0 | 0.00 | 0.00 | 0.00 | 59 | 1017.5 |
| 20260905034605 | 69 | 233 | 1.0 | 1.0 | 0.00 | 0.00 | 0.00 | 61 | 1017.4 |
| 20260905034105 | 68 | 237 | 0.0 | 1.0 | 0.00 | 0.00 | 0.00 | 61 | 1017.4 |
| 20260905033105 | 69 | 233 | 0.0 | 1.0 | 0.00 | 0.00 | 0.00 | 59 | 1017.4 |
| 20260905032605 | 69 | 235 | 1.0 | 1.0 | 0.00 | 0.00 | 0.00 | 59 | 1017.3 |
| 20260905032105 | 69 | 234 | 0.0 | 0.0 | 0.00 | 0.00 | 0.00 | 59 | 1017.5 |